Terminal Aerodrome Forecast
Issued by NWS

Home | Current Version | Previous Version | Graphics & Text | Print | Product List | Glossary On
Versions: 1 2 3 4 5 6 7 8 9 10 11 12 13 14 15 16 17 18 19 20
182
FTUS43 KMPX 231554 AAA
TAFRWF
TAF AMD
KRWF 231554Z 2316/2412 10010G18KT 3SM -SHRADZ OVC005
     FM231900 11012G20KT P6SM OVC012
     FM240600 13010KT 3SM BR OVC004=

USA.gov is the U.S. government's official web portal to all federal, state and local government web resources and services.